createdAt,value
2018-03-02T00:01:11.080Z,59.60
2018-03-02T00:03:39.370Z,59.80
2018-03-02T00:06:07.711Z,59.80
2018-03-02T00:08:36.774Z,60.30
2018-03-02T00:11:05.111Z,59.80
2018-03-02T00:13:34.175Z,59.30
2018-03-02T00:16:02.510Z,59.30
2018-03-02T00:18:31.567Z,59.80
2018-03-02T00:20:59.855Z,59.70
2018-03-02T00:23:28.183Z,60.00
2018-03-02T00:25:57.295Z,60.20
2018-03-02T00:28:25.596Z,60.30
2018-03-02T00:30:54.663Z,60.20
2018-03-02T00:33:22.993Z,60.20
2018-03-02T00:35:52.091Z,60.80
2018-03-02T00:38:20.395Z,60.60
2018-03-02T00:40:49.751Z,60.30
2018-03-02T00:43:18.050Z,60.20
2018-03-02T00:45:46.357Z,60.10
2018-03-02T00:48:14.954Z,60.10
2018-03-02T00:50:43.259Z,60.00
2018-03-02T00:53:11.554Z,60.00
2018-03-02T00:55:40.659Z,59.80
2018-03-02T00:58:08.991Z,59.70
2018-03-02T01:00:37.318Z,59.70
2018-03-02T01:03:05.646Z,59.90
2018-03-02T01:05:34.758Z,60.00
2018-03-02T01:08:03.054Z,59.90
2018-03-02T01:10:31.379Z,59.90
2018-03-02T01:12:59.714Z,60.00
2018-03-02T01:15:28.788Z,61.10
2018-03-02T01:17:57.122Z,61.00
2018-03-02T01:20:26.226Z,61.10
2018-03-02T01:22:55.334Z,61.10
2018-03-02T01:25:24.430Z,61.20
2018-03-02T01:27:53.485Z,61.80
2018-03-02T01:30:21.831Z,61.30
2018-03-02T01:32:50.894Z,61.40
2018-03-02T01:35:19.234Z,61.90
2018-03-02T01:37:48.623Z,61.90
2018-03-02T01:40:16.921Z,61.20
2018-03-02T01:42:45.231Z,61.30
2018-03-02T01:45:14.618Z,61.50
2018-03-02T01:47:44.534Z,61.60
2018-03-02T01:50:12.834Z,61.60
2018-03-02T01:52:41.179Z,61.80
2018-03-02T01:55:09.478Z,61.90
2018-03-02T01:57:37.809Z,61.50
2018-03-02T02:00:06.111Z,61.60
2018-03-02T02:02:35.210Z,61.50
2018-03-02T02:05:03.551Z,61.30
2018-03-02T02:07:31.842Z,61.50
2018-03-02T02:10:00.134Z,61.90
2018-03-02T02:12:28.477Z,61.70
2018-03-02T02:14:57.537Z,61.60
2018-03-02T02:17:25.871Z,61.60
2018-03-02T02:19:54.934Z,62.20
2018-03-02T02:22:23.270Z,61.50
2018-03-02T02:24:52.337Z,62.00
2018-03-02T02:27:20.958Z,62.00
2018-03-02T02:29:49.267Z,61.90
2018-03-02T02:32:18.335Z,62.00
2018-03-02T02:34:46.678Z,62.00
2018-03-02T02:37:15.788Z,62.00
2018-03-02T02:39:44.904Z,62.30
2018-03-02T02:42:13.206Z,62.30
2018-03-02T02:44:41.515Z,62.70
2018-03-02T02:47:09.843Z,62.50
2018-03-02T02:49:38.142Z,62.50
2018-03-02T02:52:07.243Z,62.70
2018-03-02T02:54:35.538Z,62.70
2018-03-02T02:57:04.675Z,62.90
2018-03-02T02:59:32.980Z,62.90
2018-03-02T03:02:01.302Z,62.80
2018-03-02T03:04:29.603Z,62.70
2018-03-02T03:06:57.938Z,62.40
2018-03-02T03:09:26.238Z,62.80
2018-03-02T03:11:54.573Z,62.80
2018-03-02T03:14:22.880Z,62.80
2018-03-02T03:16:51.947Z,62.50
2018-03-02T03:19:20.287Z,62.40
2018-03-02T03:21:48.585Z,62.30
2018-03-02T03:24:16.891Z,62.10
2018-03-02T03:26:45.231Z,62.20
2018-03-02T03:31:48.219Z,62.50
2018-03-02T03:34:16.542Z,62.10
2018-03-02T03:36:44.842Z,62.50
2018-03-02T03:39:13.943Z,62.60
2018-03-02T03:41:43.751Z,62.20
2018-03-02T03:44:12.078Z,62.10
2018-03-02T03:46:41.165Z,63.00
2018-03-02T03:49:09.490Z,62.90
2018-03-02T03:51:38.603Z,63.30
2018-03-02T03:54:07.679Z,63.60
2018-03-02T03:56:36.012Z,63.50
2018-03-02T03:59:05.079Z,63.50
2018-03-02T04:01:33.406Z,63.40
2018-03-02T04:04:02.794Z,63.20
2018-03-02T04:06:31.092Z,63.20
2018-03-02T04:08:59.394Z,63.50
2018-03-02T04:11:28.746Z,63.80
2018-03-02T04:13:57.067Z,63.70
2018-03-02T04:16:25.362Z,63.80
2018-03-02T04:18:53.696Z,63.80
2018-03-02T04:21:22.050Z,63.60
2018-03-02T04:23:50.390Z,63.30
2018-03-02T04:26:18.686Z,64.00
2018-03-02T04:28:47.018Z,63.10
2018-03-02T04:31:15.323Z,63.20
2018-03-02T04:33:43.646Z,63.60
2018-03-02T04:36:11.950Z,63.10
2018-03-02T04:38:40.242Z,64.20
2018-03-02T04:41:08.573Z,64.40
2018-03-02T04:43:37.674Z,64.40
2018-03-02T04:46:05.975Z,64.40
2018-03-02T04:48:35.070Z,63.80
2018-03-02T04:51:04.919Z,63.50
2018-03-02T04:53:33.983Z,63.80
2018-03-02T04:56:02.318Z,63.70
2018-03-02T04:58:31.388Z,64.00
2018-03-02T05:00:59.714Z,64.00
2018-03-02T05:03:28.782Z,63.70
2018-03-02T05:05:57.129Z,63.70
2018-03-02T05:08:25.422Z,63.60
2018-03-02T05:10:53.718Z,63.70
2018-03-02T05:13:22.050Z,63.40
2018-03-02T05:15:50.350Z,63.20
2018-03-02T05:18:18.686Z,62.80
2018-03-02T05:20:46.987Z,63.10
2018-03-02T05:23:15.323Z,63.30
2018-03-02T05:25:43.631Z,63.30
2018-03-02T05:28:12.738Z,63.80
2018-03-02T05:30:41.840Z,64.00
2018-03-02T05:33:10.894Z,63.90
2018-03-02T05:35:39.230Z,63.80
2018-03-02T05:38:08.300Z,64.10
2018-03-02T05:40:36.587Z,64.10
2018-03-02T05:43:04.924Z,63.90
2018-03-02T05:45:34.035Z,64.60
2018-03-02T05:48:03.091Z,64.30
2018-03-02T05:50:31.381Z,64.30
2018-03-02T05:52:59.710Z,64.90
2018-03-02T05:55:29.102Z,65.20
2018-03-02T05:57:57.407Z,65.10
2018-03-02T06:00:25.694Z,65.30
2018-03-02T06:02:54.031Z,64.80
2018-03-02T06:05:22.335Z,65.00
2018-03-02T06:07:50.674Z,65.30
2018-03-02T06:10:19.733Z,65.50
2018-03-02T06:12:48.040Z,65.50
2018-03-02T06:15:16.370Z,65.30
2018-03-02T06:17:45.465Z,65.60
2018-03-02T06:20:13.745Z,65.60
2018-03-02T06:22:42.120Z,65.60
2018-03-02T06:25:10.415Z,65.50
2018-03-02T06:27:38.742Z,65.70
2018-03-02T06:30:07.838Z,65.70
2018-03-02T06:32:36.902Z,65.40
2018-03-02T06:35:05.199Z,65.40
2018-03-02T06:37:33.540Z,65.30
2018-03-02T06:40:02.601Z,65.30
2018-03-02T06:42:30.967Z,65.20
2018-03-02T06:44:59.267Z,64.50
2018-03-02T06:47:27.566Z,64.60
2018-03-02T06:49:55.901Z,64.80
2018-03-02T06:52:24.962Z,64.50
2018-03-02T06:54:53.295Z,64.50
2018-03-02T06:57:22.355Z,64.90
2018-03-02T06:59:50.651Z,64.80
2018-03-02T07:02:18.987Z,64.40
2018-03-02T07:04:48.046Z,64.20
2018-03-02T07:07:16.339Z,64.20
2018-03-02T07:09:44.675Z,63.70
2018-03-02T07:12:13.771Z,64.10
2018-03-02T07:14:42.868Z,63.90
2018-03-02T07:17:11.982Z,64.20
2018-03-02T07:19:40.246Z,64.10
2018-03-02T07:22:08.574Z,64.20
2018-03-02T07:24:37.962Z,63.40
2018-03-02T07:27:06.261Z,64.00
2018-03-02T07:29:34.557Z,63.20
2018-03-02T07:32:03.661Z,63.00
2018-03-02T07:34:32.247Z,62.90
2018-03-02T07:37:00.545Z,62.40
2018-03-02T07:39:29.610Z,63.50
2018-03-02T07:41:57.933Z,63.00
2018-03-02T07:44:26.244Z,63.30
2018-03-02T07:46:55.342Z,62.80
2018-03-02T07:49:24.405Z,62.50
2018-03-02T07:51:52.729Z,62.50
2018-03-02T07:54:21.030Z,62.70
2018-03-02T07:56:50.425Z,62.10
2018-03-02T07:59:18.721Z,62.10
2018-03-02T08:01:47.029Z,62.20
2018-03-02T08:04:16.137Z,62.70
2018-03-02T08:06:45.203Z,62.50
2018-03-02T08:09:13.538Z,62.50
2018-03-02T08:11:42.634Z,61.80
2018-03-02T08:14:11.736Z,61.10
2018-03-02T08:16:40.026Z,61.10
2018-03-02T08:19:09.270Z,60.70
2018-03-02T08:21:37.607Z,60.30
2018-03-02T08:24:05.894Z,60.10
2018-03-02T08:26:34.227Z,59.10
2018-03-02T08:29:03.381Z,59.10
2018-03-02T08:31:31.670Z,59.00
2018-03-02T08:33:59.990Z,59.40
2018-03-02T08:36:28.318Z,58.80
2018-03-02T08:38:56.615Z,58.70
2018-03-02T08:41:25.267Z,59.00
2018-03-02T08:43:53.562Z,58.30
2018-03-02T08:46:21.850Z,58.60
2018-03-02T08:48:50.187Z,58.20
2018-03-02T08:51:18.516Z,58.60
2018-03-02T08:53:46.807Z,58.20
2018-03-02T08:56:15.098Z,57.30
2018-03-02T08:58:43.431Z,57.20
2018-03-02T09:01:11.722Z,57.00
2018-03-02T09:03:40.058Z,57.50
2018-03-02T09:06:08.381Z,56.90
2018-03-02T09:08:37.474Z,55.40
2018-03-02T09:11:05.775Z,55.30
2018-03-02T09:13:34.876Z,55.50
2018-03-02T09:16:03.933Z,55.10
2018-03-02T09:18:32.266Z,55.10
2018-03-02T09:21:00.594Z,54.90
2018-03-02T09:23:28.923Z,54.60
2018-03-02T09:25:57.246Z,54.30
2018-03-02T09:28:26.310Z,53.90
2018-03-02T09:30:54.943Z,53.90
2018-03-02T09:33:24.002Z,52.80
2018-03-02T09:35:52.306Z,52.70
2018-03-02T09:38:20.626Z,52.70
2018-03-02T09:40:50.466Z,52.20
2018-03-02T09:43:19.514Z,50.90
2018-03-02T09:45:47.813Z,50.80
2018-03-02T09:48:16.322Z,51.00
2018-03-02T09:50:44.589Z,52.00
2018-03-02T09:53:12.887Z,51.10
2018-03-02T09:55:41.210Z,51.70
2018-03-02T09:58:09.539Z,51.10
2018-03-02T10:00:37.830Z,51.00
2018-03-02T10:03:06.160Z,49.60
2018-03-02T10:05:34.479Z,50.00
2018-03-02T10:08:03.538Z,49.70
2018-03-02T10:10:31.875Z,49.60
2018-03-02T10:13:00.958Z,49.40
2018-03-02T10:15:29.284Z,49.30
2018-03-02T10:17:57.589Z,48.90
2018-03-02T10:20:25.910Z,49.00
2018-03-02T10:22:54.210Z,48.00
2018-03-02T10:25:23.302Z,49.00
2018-03-02T10:27:51.718Z,49.00
2018-03-02T10:30:20.010Z,49.60
2018-03-02T10:32:48.346Z,49.50
2018-03-02T10:35:16.633Z,48.20
2018-03-02T10:37:44.970Z,48.30
2018-03-02T10:40:13.266Z,48.50
2018-03-02T10:42:41.598Z,47.00
2018-03-02T10:45:09.935Z,46.60
2018-03-02T10:47:38.231Z,47.40
2018-03-02T10:50:06.554Z,47.00
2018-03-02T10:52:35.614Z,47.10
2018-03-02T10:55:03.938Z,47.00
2018-03-02T10:57:32.267Z,47.30
2018-03-02T11:00:00.560Z,46.80
2018-03-02T11:02:29.166Z,47.10
2018-03-02T11:05:03.154Z,46.10
2018-03-02T11:07:32.246Z,46.60
2018-03-02T11:10:00.569Z,46.60
2018-03-02T11:12:28.902Z,47.00
2018-03-02T11:14:57.223Z,46.70
2018-03-02T11:17:26.311Z,46.30
2018-03-02T11:19:54.634Z,46.30
2018-03-02T11:22:22.926Z,46.50
2018-03-02T11:24:51.255Z,47.70
2018-03-02T11:27:19.542Z,47.00
2018-03-02T11:29:47.866Z,47.30
2018-03-02T11:32:16.246Z,46.80
2018-03-02T11:34:44.580Z,46.30
2018-03-02T11:37:12.870Z,46.70
2018-03-02T11:39:41.195Z,46.10
2018-03-02T11:42:09.491Z,45.80
2018-03-02T11:44:37.819Z,45.60
2018-03-02T11:47:06.915Z,46.10
2018-03-02T11:49:35.190Z,46.10
2018-03-02T11:52:03.510Z,45.10
2018-03-02T11:54:32.570Z,45.20
2018-03-02T11:57:00.907Z,45.10
2018-03-02T11:59:29.961Z,45.90
2018-03-02T12:01:58.293Z,45.80
2018-03-02T12:04:26.583Z,44.70
2018-03-02T12:06:55.642Z,45.30
2018-03-02T12:09:24.238Z,45.30
2018-03-02T12:11:52.522Z,45.40
2018-03-02T12:14:20.833Z,45.10
2018-03-02T12:16:49.186Z,45.30
2018-03-02T12:19:18.222Z,45.20
2018-03-02T12:21:46.545Z,45.10
2018-03-02T12:24:14.842Z,44.70
2018-03-02T12:26:43.894Z,44.40
2018-03-02T12:29:12.231Z,44.40
2018-03-02T12:31:40.527Z,45.10
2018-03-02T12:34:09.619Z,44.20
2018-03-02T12:36:38.006Z,44.10
2018-03-02T12:39:06.264Z,44.70
2018-03-02T12:41:34.594Z,44.30
2018-03-02T12:44:02.987Z,43.90
2018-03-02T12:46:31.312Z,43.40
2018-03-02T12:48:59.602Z,43.80
2018-03-02T12:51:27.940Z,43.60
2018-03-02T12:53:56.265Z,43.00
2018-03-02T12:56:25.318Z,42.00
2018-03-02T12:58:53.646Z,41.90
2018-03-02T13:01:21.935Z,42.10
2018-03-02T13:03:50.261Z,42.00
2018-03-02T13:06:18.554Z,41.50
2018-03-02T13:08:46.879Z,41.60
2018-03-02T13:11:15.167Z,41.80
2018-03-02T13:13:43.498Z,41.60
2018-03-02T13:16:12.560Z,41.90
2018-03-02T13:18:42.658Z,41.90
2018-03-02T13:21:10.992Z,41.10
2018-03-02T13:23:39.282Z,41.00
2018-03-02T13:26:07.614Z,41.40
2018-03-02T13:28:47.903Z,41.50
2018-03-02T13:31:16.233Z,40.60
2018-03-02T13:33:56.535Z,41.00
2018-03-02T13:36:25.631Z,41.50
2018-03-02T13:38:54.719Z,40.20
2018-03-02T13:41:34.858Z,40.20
2018-03-02T13:44:03.186Z,40.50
2018-03-02T13:46:31.478Z,40.70
2018-03-02T13:49:11.542Z,41.00
2018-03-02T13:51:39.875Z,40.90
2018-03-02T13:54:08.175Z,40.40
2018-03-02T13:56:48.256Z,40.90
2018-03-02T13:59:16.546Z,41.20
2018-03-02T14:01:44.878Z,40.80
2018-03-02T14:04:25.961Z,41.40
2018-03-02T14:06:54.294Z,40.80
2018-03-02T14:09:22.624Z,41.20
2018-03-02T14:11:50.943Z,40.80
2018-03-02T14:14:20.007Z,40.40
2018-03-02T14:16:48.334Z,40.40
2018-03-02T14:19:16.626Z,40.40
2018-03-02T14:21:45.719Z,40.50
2018-03-02T14:24:14.028Z,40.50
2018-03-02T14:26:43.122Z,40.60
2018-03-02T14:29:11.458Z,40.50
2018-03-02T14:31:39.741Z,39.80
2018-03-02T14:34:08.947Z,40.10
2018-03-02T14:36:37.230Z,40.10
2018-03-02T14:39:06.295Z,40.30
2018-03-02T14:41:34.623Z,40.30
2018-03-02T14:44:03.712Z,40.00
2018-03-02T14:46:32.007Z,40.00
2018-03-02T14:49:01.113Z,39.50
2018-03-02T14:51:30.208Z,39.50
2018-03-02T14:53:58.498Z,39.50
2018-03-02T14:56:26.795Z,39.60
2018-03-02T14:58:55.893Z,40.00
2018-03-02T15:01:24.859Z,39.90
2018-03-02T15:03:53.146Z,39.40
2018-03-02T15:06:21.471Z,39.50
2018-03-02T15:08:49.789Z,39.40
2018-03-02T15:11:18.852Z,39.60
2018-03-02T15:13:47.174Z,39.60
2018-03-02T15:16:15.463Z,39.50
2018-03-02T15:18:44.070Z,39.50
2018-03-02T15:21:13.136Z,39.80
2018-03-02T15:23:41.429Z,39.70
2018-03-02T15:26:09.757Z,39.50
2018-03-02T15:28:38.814Z,39.50
2018-03-02T15:31:07.102Z,39.50
2018-03-02T15:33:35.586Z,39.50
2018-03-02T15:36:03.874Z,39.40
2018-03-02T15:38:32.205Z,39.00
2018-03-02T15:41:00.521Z,39.00
2018-03-02T15:43:28.809Z,39.50
2018-03-02T15:45:58.190Z,39.60
2018-03-02T15:48:26.591Z,39.50
2018-03-02T15:50:54.874Z,39.60
2018-03-02T15:53:23.202Z,39.70
2018-03-02T15:55:51.577Z,40.00
2018-03-02T15:58:19.846Z,39.70
2018-03-02T16:00:48.175Z,39.80
2018-03-02T16:03:16.517Z,39.90
2018-03-02T16:05:44.815Z,40.00
2018-03-02T16:08:13.142Z,40.20
2018-03-02T16:10:41.426Z,40.20
2018-03-02T16:13:09.753Z,40.70
2018-03-02T16:15:38.044Z,40.60
2018-03-02T16:18:06.657Z,40.40
2018-03-02T16:20:34.950Z,40.30
2018-03-02T16:23:03.267Z,40.50
2018-03-02T16:25:32.370Z,40.50
2018-03-02T16:28:01.470Z,40.40
2018-03-02T16:30:29.795Z,40.40
2018-03-02T16:32:58.127Z,40.70
2018-03-02T16:35:26.466Z,40.70
2018-03-02T16:37:54.900Z,40.80
2018-03-02T16:40:23.183Z,41.00
2018-03-02T16:42:51.523Z,41.00
2018-03-02T16:45:20.619Z,41.70
2018-03-02T16:47:50.459Z,41.20
2018-03-02T16:50:19.509Z,41.10
2018-03-02T16:52:47.839Z,41.10
2018-03-02T16:55:16.538Z,41.30
2018-03-02T16:57:44.830Z,41.40
2018-03-02T17:00:13.163Z,41.60
2018-03-02T17:02:42.240Z,41.60
2018-03-02T17:05:11.325Z,41.70
2018-03-02T17:07:39.649Z,41.60
2018-03-02T17:10:08.703Z,42.20
2018-03-02T17:12:37.031Z,42.20
2018-03-02T17:15:06.124Z,42.30
2018-03-02T17:17:34.456Z,42.30
2018-03-02T17:20:02.742Z,42.20
2018-03-02T17:22:31.232Z,42.50
2018-03-02T17:25:00.401Z,42.70
2018-03-02T17:27:28.696Z,42.70
2018-03-02T17:29:57.754Z,42.90
2018-03-02T17:32:26.080Z,42.90
2018-03-02T17:34:55.883Z,43.30
2018-03-02T17:37:24.219Z,43.30
2018-03-02T17:39:52.525Z,43.10
2018-03-02T17:42:21.623Z,43.60
2018-03-02T17:44:50.685Z,44.60
2018-03-02T17:47:18.970Z,44.00
2018-03-02T17:49:47.290Z,44.30
2018-03-02T17:52:15.879Z,44.60
2018-03-02T17:54:45.670Z,44.90
2018-03-02T17:57:13.973Z,44.90
2018-03-02T17:59:42.284Z,45.00
2018-03-02T18:02:10.674Z,45.40
2018-03-02T18:04:38.971Z,45.40
2018-03-02T18:07:07.304Z,45.60
2018-03-02T18:09:35.603Z,45.70
2018-03-02T18:12:03.931Z,45.60
2018-03-02T18:14:32.227Z,45.70
2018-03-02T18:17:00.554Z,45.90
2018-03-02T18:19:28.846Z,45.80
2018-03-02T18:21:57.137Z,45.90
2018-03-02T18:24:25.504Z,46.00
2018-03-02T18:26:53.788Z,46.50
2018-03-02T18:29:22.882Z,46.80
2018-03-02T18:31:51.583Z,46.80
2018-03-02T18:34:19.874Z,47.00
2018-03-02T18:36:48.253Z,47.00
2018-03-02T18:39:18.086Z,47.40
2018-03-02T18:41:46.373Z,47.40
2018-03-02T18:44:14.712Z,47.10
2018-03-02T18:46:43.014Z,47.30
2018-03-02T18:49:11.347Z,47.40
2018-03-02T18:51:39.943Z,47.50
2018-03-02T18:54:08.239Z,47.50
2018-03-02T18:56:36.584Z,47.40
2018-03-02T18:59:04.939Z,48.10
2018-03-02T19:01:34.003Z,47.90
2018-03-02T19:04:02.611Z,47.90
2018-03-02T19:06:30.906Z,47.90
2018-03-02T19:08:59.199Z,47.90
2018-03-02T19:11:27.539Z,48.20
2018-03-02T19:13:55.830Z,47.90
2018-03-02T19:16:24.179Z,48.10
2018-03-02T19:18:53.234Z,48.40
2018-03-02T19:21:21.584Z,48.40
2018-03-02T19:23:50.638Z,48.50
2018-03-02T19:26:18.938Z,48.30
2018-03-02T19:28:47.285Z,48.50
2018-03-02T19:31:15.723Z,48.40
2018-03-02T19:33:44.015Z,48.90
2018-03-02T19:36:12.342Z,49.00
2018-03-02T19:38:41.430Z,49.10
2018-03-02T19:41:09.750Z,49.10
2018-03-02T19:43:38.047Z,49.40
2018-03-02T19:46:06.376Z,49.30
2018-03-02T19:48:34.702Z,49.30
2018-03-02T19:51:03.796Z,49.80
2018-03-02T19:53:33.600Z,49.50
2018-03-02T19:56:01.945Z,49.50
2018-03-02T19:58:30.239Z,49.90
2018-03-02T20:00:58.534Z,49.80
2018-03-02T20:03:27.178Z,50.00
2018-03-02T20:05:55.557Z,50.30
2018-03-02T20:08:23.852Z,50.60
2018-03-02T20:10:52.458Z,50.70
2018-03-02T20:13:20.750Z,50.60
2018-03-02T20:15:49.135Z,50.70
2018-03-02T20:18:18.974Z,51.20
2018-03-02T20:20:48.042Z,51.00
2018-03-02T20:23:16.371Z,51.10
2018-03-02T20:25:44.705Z,51.10
2018-03-02T20:28:13.014Z,51.30
2018-03-02T20:30:41.342Z,51.50
2018-03-02T20:33:09.676Z,51.90
2018-03-02T20:35:37.958Z,52.30
2018-03-02T20:38:06.289Z,52.70
2018-03-02T20:40:34.894Z,52.70
2018-03-02T20:43:04.690Z,53.00
2018-03-02T20:45:32.986Z,53.00
2018-03-02T20:48:01.322Z,53.30
2018-03-02T20:50:30.414Z,54.40
2018-03-02T20:52:58.701Z,54.30
2018-03-02T20:55:27.026Z,54.60
2018-03-02T20:57:55.328Z,54.70
2018-03-02T21:00:23.676Z,54.90
2018-03-02T21:02:51.979Z,55.00
2018-03-02T21:05:21.034Z,55.10
2018-03-02T21:07:49.357Z,55.10
2018-03-02T21:10:17.642Z,54.90
2018-03-02T21:12:46.235Z,55.10
2018-03-02T21:15:14.527Z,55.40
2018-03-02T21:17:42.823Z,55.50
2018-03-02T21:20:11.167Z,55.70
2018-03-02T21:22:39.798Z,55.80
2018-03-02T21:25:08.098Z,55.80
2018-03-02T21:27:36.400Z,56.00
2018-03-02T21:30:05.530Z,56.40
2018-03-02T21:32:33.854Z,56.30
2018-03-02T21:35:02.263Z,56.70
2018-03-02T21:37:30.630Z,56.90
2018-03-02T21:39:58.968Z,57.20
2018-03-02T21:42:28.118Z,57.50
2018-03-02T21:44:56.638Z,57.60
2018-03-02T21:47:24.962Z,57.40
2018-03-02T21:49:54.022Z,57.70
2018-03-02T21:52:23.873Z,57.60
2018-03-02T21:54:52.177Z,57.70
2018-03-02T21:57:20.497Z,57.90
2018-03-02T21:59:48.830Z,58.00
2018-03-02T22:02:17.168Z,58.40
2018-03-02T22:04:45.462Z,58.50
2018-03-02T22:07:13.750Z,58.70
2018-03-02T22:09:42.074Z,58.70
2018-03-02T22:12:10.359Z,59.00
2018-03-02T22:14:38.687Z,58.90
2018-03-02T22:17:06.973Z,58.90
2018-03-02T22:19:35.266Z,59.00
2018-03-02T22:22:03.954Z,59.20
2018-03-02T22:24:32.241Z,58.90
2018-03-02T22:27:00.570Z,58.50
2018-03-02T22:29:29.747Z,58.50
2018-03-02T22:31:58.043Z,58.50
2018-03-02T22:34:26.362Z,58.60
2018-03-02T22:36:54.686Z,58.90
2018-03-02T22:39:22.987Z,59.10
2018-03-02T22:41:51.319Z,59.10
2018-03-02T22:44:19.609Z,59.10
2018-03-02T22:46:48.683Z,59.20
2018-03-02T22:49:17.002Z,59.20
2018-03-02T22:51:46.062Z,59.70
2018-03-02T22:54:14.375Z,59.70
2018-03-02T22:56:42.710Z,59.50
2018-03-02T22:59:11.034Z,59.60
2018-03-02T23:01:39.355Z,59.80
2018-03-02T23:04:07.687Z,60.30
2018-03-02T23:06:35.974Z,59.80
2018-03-02T23:09:04.303Z,59.80
2018-03-02T23:11:32.595Z,59.90
2018-03-02T23:14:00.916Z,59.90
2018-03-02T23:16:30.011Z,60.30
2018-03-02T23:18:58.573Z,60.20
2018-03-02T23:21:26.872Z,60.00
2018-03-02T23:23:55.169Z,60.00
2018-03-02T23:26:23.507Z,59.90
2018-03-02T23:28:51.799Z,60.00
2018-03-02T23:31:20.122Z,60.00
2018-03-02T23:33:48.442Z,59.90
2018-03-02T23:36:16.770Z,59.90
2018-03-02T23:38:45.209Z,60.00
2018-03-02T23:41:13.503Z,60.20
2018-03-02T23:43:41.801Z,60.00
2018-03-02T23:46:10.122Z,61.10
2018-03-02T23:48:38.445Z,60.30
2018-03-02T23:51:06.734Z,60.50
2018-03-02T23:53:35.058Z,60.60
2018-03-02T23:56:03.386Z,60.40
2018-03-02T23:58:31.699Z,60.20
